Terminal Aerodrome Forecast
Issued by NWS Shreveport, LA

Home | Current Version | Previous Version | Text Only | Print | Product List | Glossary On
Versions: 1 2 3 4 5 6 7 8 9 10 11 12 13 14 15 16 17 18 19 20 21 22 23 24
335
FTUS44 KSHV 212129 AAB
TAFMLU
TAF AMD
KMLU 212129Z 2121/2218 26010KT P6SM SCT025 BKN050
      TEMPO 2122/2202 SHRA OVC020
     FM220400 33004KT P6SM OVC020
      TEMPO 2209/2213 2SM BR OVC005
     FM221300 01006KT P6SM SCT020
      TEMPO 2213/2216 OVC010=

USA.gov is the U.S. government's official web portal to all federal, state and local government web resources and services.